sensor_id;sensor_type;location;lat;lon;timestamp;pressure;altitude;pressure_sealevel;temperature;humidity
66486;BME280;53303;47.476;8.084;2022-11-15T00:00:58;96298.34;;;18.83;41.78
66486;BME280;53303;47.476;8.084;2022-11-15T00:03:27;96299.56;;;18.82;41.85
66486;BME280;53303;47.476;8.084;2022-11-15T00:06:01;96285.16;;;18.78;41.92
66486;BME280;53303;47.476;8.084;2022-11-15T00:08:29;96295.75;;;18.79;41.75
66486;BME280;53303;47.476;8.084;2022-11-15T00:10:56;96293.56;;;18.83;41.88
66486;BME280;53303;47.476;8.084;2022-11-15T00:13:28;96282.66;;;18.80;41.75
66486;BME280;53303;47.476;8.084;2022-11-15T00:15:56;96292.81;;;18.83;41.86
66486;BME280;53303;47.476;8.084;2022-11-15T00:18:25;96290.97;;;18.80;41.98
66486;BME280;53303;47.476;8.084;2022-11-15T00:20:50;96290.88;;;18.74;41.75
66486;BME280;53303;47.476;8.084;2022-11-15T00:23:16;96294.19;;;18.78;41.79
66486;BME280;53303;47.476;8.084;2022-11-15T00:25:41;96302.03;;;18.80;41.93
66486;BME280;53303;47.476;8.084;2022-11-15T00:28:07;96300.34;;;18.82;41.71
66486;BME280;53303;47.476;8.084;2022-11-15T00:30:34;96295.25;;;18.81;41.83
66486;BME280;53303;47.476;8.084;2022-11-15T00:33:03;96288.19;;;18.80;41.78
66486;BME280;53303;47.476;8.084;2022-11-15T00:35:33;96291.56;;;18.84;41.85
66486;BME280;53303;47.476;8.084;2022-11-15T00:37:59;96288.19;;;18.80;41.83
66486;BME280;53303;47.476;8.084;2022-11-15T00:40:32;96282.66;;;18.80;41.93
66486;BME280;53303;47.476;8.084;2022-11-15T00:43:00;96281.75;;;18.83;41.77
66486;BME280;53303;47.476;8.084;2022-11-15T00:45:26;96263.50;;;18.76;41.83
66486;BME280;53303;47.476;8.084;2022-11-15T00:47:51;96262.56;;;18.79;41.89
66486;BME280;53303;47.476;8.084;2022-11-15T00:50:19;96242.34;;;18.73;42.17
66486;BME280;53303;47.476;8.084;2022-11-15T00:52:45;96257.63;;;18.83;41.86
66486;BME280;53303;47.476;8.084;2022-11-15T00:55:15;96221.41;;;18.67;41.92
66486;BME280;53303;47.476;8.084;2022-11-15T00:57:43;96224.81;;;18.76;41.99
66486;BME280;53303;47.476;8.084;2022-11-15T01:00:11;96233.22;;;18.82;41.90
66486;BME280;53303;47.476;8.084;2022-11-15T01:02:42;96228.91;;;18.81;41.68
66486;BME280;53303;47.476;8.084;2022-11-15T01:05:09;96212.78;;;18.79;42.20
66486;BME280;53303;47.476;8.084;2022-11-15T01:07:35;96227.19;;;18.83;41.65
66486;BME280;53303;47.476;8.084;2022-11-15T01:10:00;96229.84;;;18.78;41.94
66486;BME280;53303;47.476;8.084;2022-11-15T01:12:28;96249.97;;;18.78;42.01
66486;BME280;53303;47.476;8.084;2022-11-15T01:14:56;96238.16;;;18.78;42.12
66486;BME280;53303;47.476;8.084;2022-11-15T01:17:24;96249.78;;;18.82;42.29
66486;BME280;53303;47.476;8.084;2022-11-15T01:19:51;96244.84;;;18.86;42.15
66486;BME280;53303;47.476;8.084;2022-11-15T01:22:17;96237.69;;;18.79;42.32
66486;BME280;53303;47.476;8.084;2022-11-15T01:24:44;96247.63;;;18.86;42.35
66486;BME280;53303;47.476;8.084;2022-11-15T01:27:10;96241.88;;;18.75;42.47
66486;BME280;53303;47.476;8.084;2022-11-15T01:29:40;96239.97;;;18.81;42.38
66486;BME280;53303;47.476;8.084;2022-11-15T01:32:05;96245.03;;;18.82;42.57
66486;BME280;53303;47.476;8.084;2022-11-15T01:34:33;96232.44;;;18.81;42.60
66486;BME280;53303;47.476;8.084;2022-11-15T01:36:58;96228.13;;;18.80;42.62
66486;BME280;53303;47.476;8.084;2022-11-15T01:39:24;96233.78;;;18.86;42.42
66486;BME280;53303;47.476;8.084;2022-11-15T01:41:52;96217.84;;;18.81;42.58
66486;BME280;53303;47.476;8.084;2022-11-15T01:44:51;96211.88;;;18.82;42.65
66486;BME280;53303;47.476;8.084;2022-11-15T01:49:51;96227.94;;;18.84;42.84
66486;BME280;53303;47.476;8.084;2022-11-15T01:52:24;96217.25;;;18.77;42.53
66486;BME280;53303;47.476;8.084;2022-11-15T01:54:54;96222.41;;;18.84;42.70
66486;BME280;53303;47.476;8.084;2022-11-15T01:57:23;96222.72;;;18.86;42.70
66486;BME280;53303;47.476;8.084;2022-11-15T01:59:51;96208.75;;;18.80;42.80
66486;BME280;53303;47.476;8.084;2022-11-15T02:02:20;96211.66;;;18.86;42.57
66486;BME280;53303;47.476;8.084;2022-11-15T02:04:47;96207.09;;;18.83;42.67
66486;BME280;53303;47.476;8.084;2022-11-15T02:07:16;96204.81;;;18.81;42.70
66486;BME280;53303;47.476;8.084;2022-11-15T02:09:43;96201.84;;;18.85;42.62
66486;BME280;53303;47.476;8.084;2022-11-15T02:12:09;96202.13;;;18.87;42.34
66486;BME280;53303;47.476;8.084;2022-11-15T02:14:37;96203.84;;;18.85;42.42
66486;BME280;53303;47.476;8.084;2022-11-15T02:17:31;96185.63;;;18.78;42.66
66486;BME280;53303;47.476;8.084;2022-11-15T02:22:57;96178.97;;;18.85;42.77
66486;BME280;53303;47.476;8.084;2022-11-15T02:28:34;96180.94;;;18.84;42.64
66486;BME280;53303;47.476;8.084;2022-11-15T02:31:17;96178.69;;;18.82;42.76
66486;BME280;53303;47.476;8.084;2022-11-15T02:34:03;96163.97;;;18.76;42.71
66486;BME280;53303;47.476;8.084;2022-11-15T02:37:07;96169.13;;;18.83;42.74
66486;BME280;53303;47.476;8.084;2022-11-15T02:39:46;96170.41;;;18.82;42.71
66486;BME280;53303;47.476;8.084;2022-11-15T02:42:24;96169.31;;;18.80;42.86
66486;BME280;53303;47.476;8.084;2022-11-15T02:45:14;96156.22;;;18.80;42.69
66486;BME280;53303;47.476;8.084;2022-11-15T02:47:44;96157.78;;;18.81;42.76
66486;BME280;53303;47.476;8.084;2022-11-15T02:50:14;96161.59;;;18.84;42.65
66486;BME280;53303;47.476;8.084;2022-11-15T02:52:41;96156.06;;;18.84;42.63
66486;BME280;53303;47.476;8.084;2022-11-15T02:55:31;96150.72;;;18.80;42.76
66486;BME280;53303;47.476;8.084;2022-11-15T03:00:34;96162.38;;;18.85;42.81
66486;BME280;53303;47.476;8.084;2022-11-15T03:03:10;96157.13;;;18.87;42.87
66486;BME280;53303;47.476;8.084;2022-11-15T03:08:32;96128.56;;;18.60;43.15
66486;BME280;53303;47.476;8.084;2022-11-15T03:13:59;96141.31;;;18.72;42.96
66486;BME280;53303;47.476;8.084;2022-11-15T03:22:02;96153.19;;;18.78;42.84
66486;BME280;53303;47.476;8.084;2022-11-15T03:24:35;96157.59;;;18.85;42.88
66486;BME280;53303;47.476;8.084;2022-11-15T03:27:02;96132.25;;;18.72;42.72
66486;BME280;53303;47.476;8.084;2022-11-15T03:29:33;96147.19;;;18.80;42.81
66486;BME280;53303;47.476;8.084;2022-11-15T03:32:04;96145.19;;;18.80;42.78
66486;BME280;53303;47.476;8.084;2022-11-15T03:34:41;96141.38;;;18.78;42.78
66486;BME280;53303;47.476;8.084;2022-11-15T03:37:13;96148.56;;;18.85;42.75
66486;BME280;53303;47.476;8.084;2022-11-15T03:39:40;96135.09;;;18.77;42.79
66486;BME280;53303;47.476;8.084;2022-11-15T03:42:36;96143.97;;;18.81;42.84
66486;BME280;53303;47.476;8.084;2022-11-15T03:45:46;96136.59;;;18.78;42.90
66486;BME280;53303;47.476;8.084;2022-11-15T03:48:27;96134.13;;;18.80;42.84
66486;BME280;53303;47.476;8.084;2022-11-15T03:50:56;96140.72;;;18.83;42.85
66486;BME280;53303;47.476;8.084;2022-11-15T03:53:22;96129.38;;;18.81;42.80
66486;BME280;53303;47.476;8.084;2022-11-15T03:55:50;96128.13;;;18.82;42.99
66486;BME280;53303;47.476;8.084;2022-11-15T03:58:15;96133.00;;;18.87;42.94
66486;BME280;53303;47.476;8.084;2022-11-15T04:00:40;96098.31;;;18.71;42.84
66486;BME280;53303;47.476;8.084;2022-11-15T04:03:08;96117.84;;;18.82;43.02
66486;BME280;53303;47.476;8.084;2022-11-15T04:05:33;96124.69;;;18.87;42.66
66486;BME280;53303;47.476;8.084;2022-11-15T04:08:01;96116.59;;;18.83;42.65
66486;BME280;53303;47.476;8.084;2022-11-15T04:10:26;96117.53;;;18.80;42.89
66486;BME280;53303;47.476;8.084;2022-11-15T04:12:54;96109.22;;;18.80;42.83
66486;BME280;53303;47.476;8.084;2022-11-15T04:15:23;96124.69;;;18.87;43.02
66486;BME280;53303;47.476;8.084;2022-11-15T04:17:49;96124.69;;;18.87;42.76
66486;BME280;53303;47.476;8.084;2022-11-15T04:20:23;96108.97;;;18.78;42.75
66486;BME280;53303;47.476;8.084;2022-11-15T04:26:00;96109.56;;;18.82;42.75
66486;BME280;53303;47.476;8.084;2022-11-15T04:28:29;96103.69;;;18.80;42.85
66486;BME280;53303;47.476;8.084;2022-11-15T04:30:54;96095.06;;;18.88;42.82
66486;BME280;53303;47.476;8.084;2022-11-15T04:33:22;96102.09;;;18.89;42.62
66486;BME280;53303;47.476;8.084;2022-11-15T04:35:50;96107.63;;;18.89;42.78
66486;BME280;53303;47.476;8.084;2022-11-15T04:38:39;96099.25;;;18.83;42.64
66486;BME280;53303;47.476;8.084;2022-11-15T04:41:04;96093.72;;;18.83;42.77
66486;BME280;53303;47.476;8.084;2022-11-15T04:43:30;96101.06;;;18.86;42.73
66486;BME280;53303;47.476;8.084;2022-11-15T04:45:55;96103.34;;;18.88;42.68
66486;BME280;53303;47.476;8.084;2022-11-15T04:48:23;96090.22;;;18.82;42.71
66486;BME280;53303;47.476;8.084;2022-11-15T04:50:48;96081.41;;;18.84;42.64
66486;BME280;53303;47.476;8.084;2022-11-15T04:53:19;96093.25;;;18.85;42.70
66486;BME280;53303;47.476;8.084;2022-11-15T04:55:47;96084.34;;;18.80;42.72
66486;BME280;53303;47.476;8.084;2022-11-15T04:58:13;96088.75;;;18.87;42.36
66486;BME280;53303;47.476;8.084;2022-11-15T05:00:38;96070.47;;;18.75;42.49
66486;BME280;53303;47.476;8.084;2022-11-15T05:03:04;96078.06;;;18.80;42.55
66486;BME280;53303;47.476;8.084;2022-11-15T05:05:51;96075.59;;;18.82;42.60
66486;BME280;53303;47.476;8.084;2022-11-15T05:08:16;96081.22;;;18.88;42.55
66486;BME280;53303;47.476;8.084;2022-11-15T05:10:44;96073.13;;;18.84;42.39
66486;BME280;53303;47.476;8.084;2022-11-15T05:13:12;96070.84;;;18.82;42.57
66486;BME280;53303;47.476;8.084;2022-11-15T05:15:37;96062.75;;;18.79;42.63
66486;BME280;53303;47.476;8.084;2022-11-15T05:18:02;96057.22;;;18.79;42.53
66486;BME280;53303;47.476;8.084;2022-11-15T05:20:30;96064.53;;;18.82;42.51
66486;BME280;53303;47.476;8.084;2022-11-15T05:22:55;96071.41;;;18.87;42.51
66486;BME280;53303;47.476;8.084;2022-11-15T05:25:24;96061.03;;;18.81;42.44
66486;BME280;53303;47.476;8.084;2022-11-15T05:27:49;96069.38;;;18.87;42.43
66486;BME280;53303;47.476;8.084;2022-11-15T05:30:17;96055.50;;;18.81;42.60
66486;BME280;53303;47.476;8.084;2022-11-15T05:32:43;96055.56;;;18.87;42.54
66486;BME280;53303;47.476;8.084;2022-11-15T05:35:15;96059.59;;;18.86;42.35
66486;BME280;53303;47.476;8.084;2022-11-15T05:37:47;96062.84;;;18.85;42.52
66486;BME280;53303;47.476;8.084;2022-11-15T05:40:13;96053.50;;;18.82;42.32
66486;BME280;53303;47.476;8.084;2022-11-15T05:42:38;96052.72;;;18.81;42.59
66486;BME280;53303;47.476;8.084;2022-11-15T05:45:05;96040.13;;;18.80;42.43
66486;BME280;53303;47.476;8.084;2022-11-15T05:47:35;96037.34;;;18.80;42.59
66486;BME280;53303;47.476;8.084;2022-11-15T05:50:02;96037.84;;;18.79;42.46
66486;BME280;53303;47.476;8.084;2022-11-15T05:52:35;96036.59;;;18.80;42.25
66486;BME280;53303;47.476;8.084;2022-11-15T05:55:06;96037.94;;;18.85;42.47
66486;BME280;53303;47.476;8.084;2022-11-15T05:57:32;96036.59;;;18.80;42.46
66486;BME280;53303;47.476;8.084;2022-11-15T05:59:57;96047.19;;;18.81;42.50
66486;BME280;53303;47.476;8.084;2022-11-15T06:02:23;96042.13;;;18.80;42.44
66486;BME280;53303;47.476;8.084;2022-11-15T06:04:51;96036.16;;;18.81;42.38
66486;BME280;53303;47.476;8.084;2022-11-15T06:07:16;96019.34;;;18.64;42.45
66486;BME280;53303;47.476;8.084;2022-11-15T06:09:46;96041.75;;;18.87;42.39
66486;BME280;53303;47.476;8.084;2022-11-15T06:12:11;96043.00;;;18.86;42.33
66486;BME280;53303;47.476;8.084;2022-11-15T06:14:37;96038.97;;;18.87;42.61
66486;BME280;53303;47.476;8.084;2022-11-15T06:17:07;96043.47;;;18.85;42.25
66486;BME280;53303;47.476;8.084;2022-11-15T06:19:32;96032.59;;;18.81;42.50
66486;BME280;53303;47.476;8.084;2022-11-15T06:22:00;96036.22;;;18.87;42.44
66486;BME280;53303;47.476;8.084;2022-11-15T06:24:25;96020.22;;;18.76;42.53
66486;BME280;53303;47.476;8.084;2022-11-15T06:26:53;96029.06;;;18.80;42.34
66486;BME280;53303;47.476;8.084;2022-11-15T06:29:18;96002.81;;;18.70;42.32
66486;BME280;53303;47.476;8.084;2022-11-15T06:31:44;96032.69;;;18.87;42.62
66486;BME280;53303;47.476;8.084;2022-11-15T06:34:12;96029.38;;;18.82;42.53
66486;BME280;53303;47.476;8.084;2022-11-15T06:36:42;96037.94;;;18.85;42.25
66486;BME280;53303;47.476;8.084;2022-11-15T06:39:07;96018.41;;;18.73;42.41
66486;BME280;53303;47.476;8.084;2022-11-15T06:41:34;96024.03;;;18.79;42.05
66486;BME280;53303;47.476;8.084;2022-11-15T06:44:02;96042.50;;;18.88;42.37
66486;BME280;53303;47.476;8.084;2022-11-15T06:46:28;96027.63;;;18.85;42.39
66486;BME280;53303;47.476;8.084;2022-11-15T06:48:55;96024.03;;;18.79;42.26
66486;BME280;53303;47.476;8.084;2022-11-15T06:51:21;96030.31;;;18.79;42.22
66486;BME280;53303;47.476;8.084;2022-11-15T06:53:51;96043.00;;;18.86;41.97
66486;BME280;53303;47.476;8.084;2022-11-15T06:56:17;96032.59;;;18.81;42.18
66486;BME280;53303;47.476;8.084;2022-11-15T06:58:42;96045.75;;;18.86;42.68
66486;BME280;53303;47.476;8.084;2022-11-15T07:01:11;96038.91;;;18.81;42.36
66486;BME280;53303;47.476;8.084;2022-11-15T07:03:38;96047.19;;;18.81;42.21
66486;BME280;53303;47.476;8.084;2022-11-15T07:06:07;96058.06;;;18.85;42.49
66486;BME280;53303;47.476;8.084;2022-11-15T07:08:35;96058.53;;;18.83;42.17
66486;BME280;53303;47.476;8.084;2022-11-15T07:11:06;96059.28;;;18.84;42.23
66486;BME280;53303;47.476;8.084;2022-11-15T07:13:33;96054.53;;;18.85;42.41
66486;BME280;53303;47.476;8.084;2022-11-15T07:16:08;96056.53;;;18.84;42.37
66486;BME280;53303;47.476;8.084;2022-11-15T07:18:35;96047.97;;;18.82;42.30
66486;BME280;53303;47.476;8.084;2022-11-15T07:21:07;96055.03;;;18.83;42.25
66486;BME280;53303;47.476;8.084;2022-11-15T07:23:33;96026.63;;;18.68;42.37
66486;BME280;53303;47.476;8.084;2022-11-15T07:26:03;96042.13;;;18.80;42.33
66486;BME280;53303;47.476;8.084;2022-11-15T07:28:28;96044.88;;;18.80;42.22
66486;BME280;53303;47.476;8.084;2022-11-15T07:30:56;96044.88;;;18.80;42.34
66486;BME280;53303;47.476;8.084;2022-11-15T07:33:21;96049.00;;;18.85;42.28
66486;BME280;53303;47.476;8.084;2022-11-15T07:35:49;96042.88;;;18.80;42.27
66486;BME280;53303;47.476;8.084;2022-11-15T07:38:15;96057.31;;;18.85;42.34
66486;BME280;53303;47.476;8.084;2022-11-15T07:40:46;96054.25;;;18.82;42.38
66486;BME280;53303;47.476;8.084;2022-11-15T07:43:12;96046.91;;;18.79;42.44
66486;BME280;53303;47.476;8.084;2022-11-15T07:45:42;96054.53;;;18.85;42.29
66486;BME280;53303;47.476;8.084;2022-11-15T07:48:08;96047.97;;;18.82;42.50
66486;BME280;53303;47.476;8.084;2022-11-15T07:50:40;96060.34;;;18.87;42.38
66486;BME280;53303;47.476;8.084;2022-11-15T07:53:07;96057.56;;;18.87;42.63
66486;BME280;53303;47.476;8.084;2022-11-15T07:55:36;96054.31;;;18.88;42.69
66486;BME280;53303;47.476;8.084;2022-11-15T07:58:06;96045.28;;;18.88;42.78
66486;BME280;53303;47.476;8.084;2022-11-15T08:00:32;96047.00;;;18.85;42.82
66486;BME280;53303;47.476;8.084;2022-11-15T08:03:16;96049.50;;;18.83;42.76
66486;BME280;53303;47.476;8.084;2022-11-15T08:05:50;96042.88;;;18.80;42.60
66486;BME280;53303;47.476;8.084;2022-11-15T08:08:18;96063.38;;;18.89;42.61
66486;BME280;53303;47.476;8.084;2022-11-15T08:10:46;96056.34;;;18.88;43.05
66486;BME280;53303;47.476;8.084;2022-11-15T08:13:12;96054.06;;;18.86;42.99
66486;BME280;53303;47.476;8.084;2022-11-15T08:15:38;96051.84;;;18.90;42.94
66486;BME280;53303;47.476;8.084;2022-11-15T08:18:09;96046.25;;;18.85;42.62
66486;BME280;53303;47.476;8.084;2022-11-15T08:20:35;96052.59;;;18.91;42.88
66486;BME280;53303;47.476;8.084;2022-11-15T08:23:05;96049.75;;;18.85;42.88
66486;BME280;53303;47.476;8.084;2022-11-15T08:25:32;96054.59;;;18.90;42.90
66486;BME280;53303;47.476;8.084;2022-11-15T08:28:00;96055.09;;;18.89;42.82
66486;BME280;53303;47.476;8.084;2022-11-15T08:30:27;96052.78;;;18.87;42.78
66486;BME280;53303;47.476;8.084;2022-11-15T08:32:56;96060.63;;;18.89;43.00
66486;BME280;53303;47.476;8.084;2022-11-15T08:35:25;96064.13;;;18.89;43.04
66486;BME280;53303;47.476;8.084;2022-11-15T08:37:53;96064.44;;;18.91;42.90
66486;BME280;53303;47.476;8.084;2022-11-15T08:40:19;96055.34;;;18.91;42.81
66486;BME280;53303;47.476;8.084;2022-11-15T08:42:48;96038.91;;;18.81;42.97
66486;BME280;53303;47.476;8.084;2022-11-15T08:45:14;96062.41;;;18.92;43.06
66486;BME280;53303;47.476;8.084;2022-11-15T08:47:42;96054.13;;;18.92;43.00
66486;BME280;53303;47.476;8.084;2022-11-15T08:50:12;96053.38;;;18.91;43.13
66486;BME280;53303;47.476;8.084;2022-11-15T08:52:37;96054.41;;;18.94;43.08
66486;BME280;53303;47.476;8.084;2022-11-15T08:55:03;96047.84;;;18.91;42.71
66486;BME280;53303;47.476;8.084;2022-11-15T08:57:33;96037.53;;;18.92;43.12
66486;BME280;53303;47.476;8.084;2022-11-15T08:59:59;96039.03;;;18.93;43.05
66486;BME280;53303;47.476;8.084;2022-11-15T09:02:24;96033.50;;;18.93;43.11
66486;BME280;53303;47.476;8.084;2022-11-15T09:04:52;96017.25;;;18.80;43.22
66486;BME280;53303;47.476;8.084;2022-11-15T09:07:17;96028.97;;;18.90;43.11
66486;BME280;53303;47.476;8.084;2022-11-15T09:09:43;96030.19;;;18.89;43.17
66486;BME280;53303;47.476;8.084;2022-11-15T09:12:11;96032.47;;;18.90;42.98
66486;BME280;53303;47.476;8.084;2022-11-15T09:14:36;96020.88;;;18.86;43.15
66486;BME280;53303;47.476;8.084;2022-11-15T09:17:01;96012.97;;;18.79;43.03
66486;BME280;53303;47.476;8.084;2022-11-15T09:19:31;96011.72;;;18.80;42.96
66486;BME280;53303;47.476;8.084;2022-11-15T09:21:57;96031.25;;;18.91;43.13
66486;BME280;53303;47.476;8.084;2022-11-15T09:24:24;96018.38;;;18.88;43.05
66486;BME280;53303;47.476;8.084;2022-11-15T09:26:53;96013.25;;;18.81;43.03
66486;BME280;53303;47.476;8.084;2022-11-15T09:29:18;96008.94;;;18.80;42.80
66486;BME280;53303;47.476;8.084;2022-11-15T09:31:46;96008.94;;;18.80;42.93
66486;BME280;53303;47.476;8.084;2022-11-15T09:34:12;96016.31;;;18.83;42.78
66486;BME280;53303;47.476;8.084;2022-11-15T09:36:39;96014.78;;;18.82;42.75
66486;BME280;53303;47.476;8.084;2022-11-15T09:39:07;96010.22;;;18.79;42.87
66486;BME280;53303;47.476;8.084;2022-11-15T09:47:40;96012.69;;;18.77;42.58
66486;BME280;53303;47.476;8.084;2022-11-15T09:50:27;96004.88;;;18.75;42.50
66486;BME280;53303;47.476;8.084;2022-11-15T09:52:56;96008.94;;;18.80;42.52
66486;BME280;53303;47.476;8.084;2022-11-15T09:55:31;95992.78;;;18.73;42.54
66486;BME280;53303;47.476;8.084;2022-11-15T09:58:07;96010.47;;;18.81;42.71
66486;BME280;53303;47.476;8.084;2022-11-15T10:00:40;96012.00;;;18.82;42.69
66486;BME280;53303;47.476;8.084;2022-11-15T10:05:41;96009.50;;;18.84;42.64
66486;BME280;53303;47.476;8.084;2022-11-15T10:10:49;96020.56;;;18.84;42.75
66486;BME280;53303;47.476;8.084;2022-11-15T10:15:51;96010.09;;;18.88;42.82
66486;BME280;53303;47.476;8.084;2022-11-15T10:18:35;95998.19;;;18.82;42.76
66486;BME280;53303;47.476;8.084;2022-11-15T10:21:23;96000.25;;;18.87;42.74
66486;BME280;53303;47.476;8.084;2022-11-15T10:23:50;96001.31;;;18.90;42.99
66486;BME280;53303;47.476;8.084;2022-11-15T10:26:17;96003.88;;;18.93;43.17
66486;BME280;53303;47.476;8.084;2022-11-15T10:28:42;95994.72;;;18.87;43.37
66486;BME280;53303;47.476;8.084;2022-11-15T10:31:27;95995.50;;;18.88;43.14
66486;BME280;53303;47.476;8.084;2022-11-15T10:34:12;96002.53;;;18.89;43.00
66486;BME280;53303;47.476;8.084;2022-11-15T10:36:38;95976.16;;;18.88;43.31
66486;BME280;53303;47.476;8.084;2022-11-15T10:39:11;95972.97;;;18.95;43.37
66486;BME280;53303;47.476;8.084;2022-11-15T10:41:42;95937.22;;;18.91;43.34
66486;BME280;53303;47.476;8.084;2022-11-15T10:47:03;95948.06;;;18.95;43.33
66486;BME280;53303;47.476;8.084;2022-11-15T10:49:33;95958.63;;;18.96;43.56
66486;BME280;53303;47.476;8.084;2022-11-15T10:52:19;95952.81;;;18.94;43.50
66486;BME280;53303;47.476;8.084;2022-11-15T10:54:48;95941.50;;;18.92;43.77
66486;BME280;53303;47.476;8.084;2022-11-15T10:57:31;95940.75;;;18.92;43.79
66486;BME280;53303;47.476;8.084;2022-11-15T11:02:42;95927.44;;;18.96;43.70
66486;BME280;53303;47.476;8.084;2022-11-15T11:05:36;95919.38;;;18.92;43.91
66486;BME280;53303;47.476;8.084;2022-11-15T11:08:20;95922.69;;;18.96;43.69
66486;BME280;53303;47.476;8.084;2022-11-15T11:11:00;95917.91;;;18.97;43.87
66486;BME280;53303;47.476;8.084;2022-11-15T11:13:32;95912.44;;;19.02;44.08
66486;BME280;53303;47.476;8.084;2022-11-15T11:21:21;95869.16;;;18.99;44.04
66486;BME280;53303;47.476;8.084;2022-11-15T11:23:58;95861.09;;;18.96;44.09
66486;BME280;53303;47.476;8.084;2022-11-15T11:26:56;95862.88;;;18.99;44.15
66486;BME280;53303;47.476;8.084;2022-11-15T11:29:56;95865.66;;;18.99;44.15
66486;BME280;53303;47.476;8.084;2022-11-15T11:38:17;95875.75;;;19.02;44.35
66486;BME280;53303;47.476;8.084;2022-11-15T11:41:04;95855.06;;;18.97;44.44
66486;BME280;53303;47.476;8.084;2022-11-15T11:44:12;95850.28;;;18.98;44.51
66486;BME280;53303;47.476;8.084;2022-11-15T11:49:23;95840.97;;;18.95;44.32
66486;BME280;53303;47.476;8.084;2022-11-15T11:57:33;95853.66;;;19.08;44.26
66486;BME280;53303;47.476;8.084;2022-11-15T12:00:17;95851.84;;;19.05;44.43
66486;BME280;53303;47.476;8.084;2022-11-15T12:05:49;95847.63;;;19.09;44.67
66486;BME280;53303;47.476;8.084;2022-11-15T12:10:55;95831.31;;;19.11;44.44
66486;BME280;53303;47.476;8.084;2022-11-15T12:13:28;95840.84;;;19.10;44.38
66486;BME280;53303;47.476;8.084;2022-11-15T12:18:40;95815.41;;;19.06;44.55
66486;BME280;53303;47.476;8.084;2022-11-15T12:23:53;95803.38;;;19.09;44.52
66486;BME280;53303;47.476;8.084;2022-11-15T12:26:25;95784.50;;;19.08;44.40
66486;BME280;53303;47.476;8.084;2022-11-15T12:28:57;95811.72;;;19.15;44.38
66486;BME280;53303;47.476;8.084;2022-11-15T12:31:35;95801.88;;;19.14;44.58
66486;BME280;53303;47.476;8.084;2022-11-15T12:34:28;95789.81;;;19.11;44.62
66486;BME280;53303;47.476;8.084;2022-11-15T12:36:55;95779.72;;;19.08;44.67
66486;BME280;53303;47.476;8.084;2022-11-15T12:47:23;95780.81;;;19.16;44.50
66486;BME280;53303;47.476;8.084;2022-11-15T12:49:49;95781.03;;;19.13;44.65
66486;BME280;53303;47.476;8.084;2022-11-15T12:52:18;95774.22;;;19.14;44.55
66486;BME280;53303;47.476;8.084;2022-11-15T12:54:58;95770.97;;;19.15;44.85
66486;BME280;53303;47.476;8.084;2022-11-15T13:02:46;95745.59;;;19.17;44.79
66486;BME280;53303;47.476;8.084;2022-11-15T13:17:50;95741.59;;;19.18;44.86
66486;BME280;53303;47.476;8.084;2022-11-15T13:20:22;95727.69;;;19.12;44.55
66486;BME280;53303;47.476;8.084;2022-11-15T13:23:09;95745.59;;;19.17;44.87
66486;BME280;53303;47.476;8.084;2022-11-15T13:25:52;95733.06;;;19.21;44.68
66486;BME280;53303;47.476;8.084;2022-11-15T13:28:33;95736.78;;;19.18;44.52
66486;BME280;53303;47.476;8.084;2022-11-15T13:31:13;95739.06;;;19.20;44.79
66486;BME280;53303;47.476;8.084;2022-11-15T13:33:42;95730.72;;;19.14;44.76
66486;BME280;53303;47.476;8.084;2022-11-15T13:38:43;95735.03;;;19.21;44.63
66486;BME280;53303;47.476;8.084;2022-11-15T13:41:31;95736.78;;;19.18;44.68
66486;BME280;53303;47.476;8.084;2022-11-15T13:43:58;95712.09;;;19.09;44.66
66486;BME280;53303;47.476;8.084;2022-11-15T13:46:42;95727.47;;;19.16;44.50
66486;BME280;53303;47.476;8.084;2022-11-15T13:49:09;95714.41;;;19.16;44.55
66486;BME280;53303;47.476;8.084;2022-11-15T13:51:40;95726.50;;;19.25;44.57
66486;BME280;53303;47.476;8.084;2022-11-15T13:54:30;95704.59;;;19.15;44.95
66486;BME280;53303;47.476;8.084;2022-11-15T14:02:01;95692.56;;;19.24;44.66
66486;BME280;53303;47.476;8.084;2022-11-15T14:04:30;95689.03;;;19.24;44.47
66486;BME280;53303;47.476;8.084;2022-11-15T14:06:59;95680.25;;;19.25;44.77
66486;BME280;53303;47.476;8.084;2022-11-15T14:09:36;95675.72;;;19.22;44.76
66486;BME280;53303;47.476;8.084;2022-11-15T14:12:30;95661.06;;;19.10;44.54
66486;BME280;53303;47.476;8.084;2022-11-15T14:15:00;95669.91;;;19.20;44.72
66486;BME280;53303;47.476;8.084;2022-11-15T14:19:58;95666.91;;;19.24;44.67
66486;BME280;53303;47.476;8.084;2022-11-15T14:22:28;95673.19;;;19.24;44.72
66486;BME280;53303;47.476;8.084;2022-11-15T14:27:40;95667.16;;;19.20;44.73
66486;BME280;53303;47.476;8.084;2022-11-15T14:30:15;95664.63;;;19.16;44.44
66486;BME280;53303;47.476;8.084;2022-11-15T14:32:47;95676.47;;;19.23;44.66
66486;BME280;53303;47.476;8.084;2022-11-15T14:35:18;95673.69;;;19.23;44.70
66486;BME280;53303;47.476;8.084;2022-11-15T14:37:49;95677.97;;;19.24;44.54
66486;BME280;53303;47.476;8.084;2022-11-15T14:40:19;95659.34;;;19.18;44.60
66486;BME280;53303;47.476;8.084;2022-11-15T14:42:46;95645.28;;;19.22;44.34
66486;BME280;53303;47.476;8.084;2022-11-15T14:45:20;95652.59;;;19.25;44.49
66486;BME280;53303;47.476;8.084;2022-11-15T14:47:48;95637.22;;;19.18;44.60
66486;BME280;53303;47.476;8.084;2022-11-15T14:50:19;95655.34;;;19.25;44.59
66486;BME280;53303;47.476;8.084;2022-11-15T14:52:50;95655.34;;;19.25;44.62
66486;BME280;53303;47.476;8.084;2022-11-15T14:55:27;95660.91;;;19.25;44.59
66486;BME280;53303;47.476;8.084;2022-11-15T14:57:54;95663.13;;;19.27;44.71
66486;BME280;53303;47.476;8.084;2022-11-15T15:00:20;95661.91;;;19.28;44.28
66486;BME280;53303;47.476;8.084;2022-11-15T15:02:47;95640.50;;;19.28;44.50
66486;BME280;53303;47.476;8.084;2022-11-15T15:07:46;95640.50;;;19.28;44.54
66486;BME280;53303;47.476;8.084;2022-11-15T15:10:15;95637.00;;;19.28;44.44
66486;BME280;53303;47.476;8.084;2022-11-15T15:12:41;95625.91;;;19.22;44.60
66486;BME280;53303;47.476;8.084;2022-11-15T15:15:20;95614.84;;;19.22;44.70